sensor_id;sensor_type;location;lat;lon;timestamp;temperature;humidity
14733;DHT22;7457;50.960;6.830;2023-08-07T00:00:17;12.70;99.00
14733;DHT22;7457;50.960;6.830;2023-08-07T00:02:43;12.70;99.20
14733;DHT22;7457;50.960;6.830;2023-08-07T00:05:08;12.70;99.30
14733;DHT22;7457;50.960;6.830;2023-08-07T00:07:34;12.60;99.50
14733;DHT22;7457;50.960;6.830;2023-08-07T00:10:00;12.60;99.60
14733;DHT22;7457;50.960;6.830;2023-08-07T00:12:27;12.50;99.80
14733;DHT22;7457;50.960;6.830;2023-08-07T00:14:52;12.50;100.00
14733;DHT22;7457;50.960;6.830;2023-08-07T00:17:18;12.50;100.00
14733;DHT22;7457;50.960;6.830;2023-08-07T00:19:44;12.40;100.00
14733;DHT22;7457;50.960;6.830;2023-08-07T00:22:09;12.40;100.00
14733;DHT22;7457;50.960;6.830;2023-08-07T00:24:35;12.40;100.00
14733;DHT22;7457;50.960;6.830;2023-08-07T00:27:01;12.40;100.00
14733;DHT22;7457;50.960;6.830;2023-08-07T00:29:27;12.40;100.00
14733;DHT22;7457;50.960;6.830;2023-08-07T00:31:52;12.40;100.00
14733;DHT22;7457;50.960;6.830;2023-08-07T00:34:18;12.40;100.00
14733;DHT22;7457;50.960;6.830;2023-08-07T00:36:43;12.40;100.00
14733;DHT22;7457;50.960;6.830;2023-08-07T00:39:09;12.30;100.00
14733;DHT22;7457;50.960;6.830;2023-08-07T00:41:35;12.30;100.00
14733;DHT22;7457;50.960;6.830;2023-08-07T00:44:01;12.30;100.00
14733;DHT22;7457;50.960;6.830;2023-08-07T00:46:27;12.30;100.00
14733;DHT22;7457;50.960;6.830;2023-08-07T00:48:54;12.30;100.00
14733;DHT22;7457;50.960;6.830;2023-08-07T00:51:20;12.30;100.00
14733;DHT22;7457;50.960;6.830;2023-08-07T00:56:13;12.20;100.00
14733;DHT22;7457;50.960;6.830;2023-08-07T00:58:40;12.20;100.00
14733;DHT22;7457;50.960;6.830;2023-08-07T01:01:06;12.20;100.00
14733;DHT22;7457;50.960;6.830;2023-08-07T01:03:32;12.20;100.00
14733;DHT22;7457;50.960;6.830;2023-08-07T01:05:57;12.10;100.00
14733;DHT22;7457;50.960;6.830;2023-08-07T01:08:24;12.10;100.00
14733;DHT22;7457;50.960;6.830;2023-08-07T01:19:29;12.10;100.00
14733;DHT22;7457;50.960;6.830;2023-08-07T01:24:37;12.20;100.00
14733;DHT22;7457;50.960;6.830;2023-08-07T01:33:09;12.30;100.00
14733;DHT22;7457;50.960;6.830;2023-08-07T01:35:48;12.30;100.00
14733;DHT22;7457;50.960;6.830;2023-08-07T01:38:15;12.40;100.00
14733;DHT22;7457;50.960;6.830;2023-08-07T01:40:42;12.40;100.00
14733;DHT22;7457;50.960;6.830;2023-08-07T01:43:08;12.40;100.00
14733;DHT22;7457;50.960;6.830;2023-08-07T01:45:34;12.40;100.00
14733;DHT22;7457;50.960;6.830;2023-08-07T01:48:00;12.40;100.00
14733;DHT22;7457;50.960;6.830;2023-08-07T01:50:26;12.40;100.00
14733;DHT22;7457;50.960;6.830;2023-08-07T01:52:52;12.50;100.00
14733;DHT22;7457;50.960;6.830;2023-08-07T01:55:19;12.50;100.00
14733;DHT22;7457;50.960;6.830;2023-08-07T01:57:44;12.50;100.00
14733;DHT22;7457;50.960;6.830;2023-08-07T02:00:10;12.50;100.00
14733;DHT22;7457;50.960;6.830;2023-08-07T02:02:36;12.50;100.00
14733;DHT22;7457;50.960;6.830;2023-08-07T02:05:03;12.50;100.00
14733;DHT22;7457;50.960;6.830;2023-08-07T02:07:29;12.60;100.00
14733;DHT22;7457;50.960;6.830;2023-08-07T02:09:55;12.60;99.90
14733;DHT22;7457;50.960;6.830;2023-08-07T02:12:20;12.60;99.70
14733;DHT22;7457;50.960;6.830;2023-08-07T02:14:46;12.60;99.60
14733;DHT22;7457;50.960;6.830;2023-08-07T02:17:12;12.60;99.40
14733;DHT22;7457;50.960;6.830;2023-08-07T02:19:37;12.70;99.30
14733;DHT22;7457;50.960;6.830;2023-08-07T02:22:03;12.70;99.10
14733;DHT22;7457;50.960;6.830;2023-08-07T02:24:29;12.70;98.80
14733;DHT22;7457;50.960;6.830;2023-08-07T02:26:55;12.70;98.70
14733;DHT22;7457;50.960;6.830;2023-08-07T02:29:20;12.70;98.50
14733;DHT22;7457;50.960;6.830;2023-08-07T02:31:46;12.70;98.40
14733;DHT22;7457;50.960;6.830;2023-08-07T02:34:12;12.70;98.40
14733;DHT22;7457;50.960;6.830;2023-08-07T02:36:37;12.70;98.30
14733;DHT22;7457;50.960;6.830;2023-08-07T02:39:04;12.70;98.20
14733;DHT22;7457;50.960;6.830;2023-08-07T02:41:29;12.60;98.30
14733;DHT22;7457;50.960;6.830;2023-08-07T02:43:57;12.60;98.40
14733;DHT22;7457;50.960;6.830;2023-08-07T02:46:22;12.50;98.50
14733;DHT22;7457;50.960;6.830;2023-08-07T02:48:48;12.40;98.70
14733;DHT22;7457;50.960;6.830;2023-08-07T02:51:14;12.40;99.00
14733;DHT22;7457;50.960;6.830;2023-08-07T02:53:39;12.30;99.20
14733;DHT22;7457;50.960;6.830;2023-08-07T02:56:05;12.30;99.40
14733;DHT22;7457;50.960;6.830;2023-08-07T02:58:30;12.20;99.70
14733;DHT22;7457;50.960;6.830;2023-08-07T03:00:56;12.20;99.90
14733;DHT22;7457;50.960;6.830;2023-08-07T03:03:22;12.20;100.00
14733;DHT22;7457;50.960;6.830;2023-08-07T03:05:51;12.10;100.00
14733;DHT22;7457;50.960;6.830;2023-08-07T03:08:17;12.10;100.00
14733;DHT22;7457;50.960;6.830;2023-08-07T03:10:53;12.10;100.00
14733;DHT22;7457;50.960;6.830;2023-08-07T03:13:19;12.20;100.00
14733;DHT22;7457;50.960;6.830;2023-08-07T03:15:45;12.20;100.00
14733;DHT22;7457;50.960;6.830;2023-08-07T03:18:10;12.20;100.00
14733;DHT22;7457;50.960;6.830;2023-08-07T03:20:37;12.20;100.00
14733;DHT22;7457;50.960;6.830;2023-08-07T03:23:03;12.20;100.00
14733;DHT22;7457;50.960;6.830;2023-08-07T03:25:28;12.10;100.00
14733;DHT22;7457;50.960;6.830;2023-08-07T03:27:54;12.10;100.00
14733;DHT22;7457;50.960;6.830;2023-08-07T03:30:20;12.10;100.00
14733;DHT22;7457;50.960;6.830;2023-08-07T03:32:45;12.10;100.00
14733;DHT22;7457;50.960;6.830;2023-08-07T03:35:11;12.10;100.00
14733;DHT22;7457;50.960;6.830;2023-08-07T03:37:37;12.10;100.00
14733;DHT22;7457;50.960;6.830;2023-08-07T03:40:03;12.20;100.00
14733;DHT22;7457;50.960;6.830;2023-08-07T03:42:29;12.20;100.00
14733;DHT22;7457;50.960;6.830;2023-08-07T03:44:54;12.20;100.00
14733;DHT22;7457;50.960;6.830;2023-08-07T03:47:20;12.20;100.00
14733;DHT22;7457;50.960;6.830;2023-08-07T03:49:46;12.20;100.00
14733;DHT22;7457;50.960;6.830;2023-08-07T03:52:11;12.20;100.00
14733;DHT22;7457;50.960;6.830;2023-08-07T03:54:37;12.20;100.00
14733;DHT22;7457;50.960;6.830;2023-08-07T03:57:03;12.20;100.00
14733;DHT22;7457;50.960;6.830;2023-08-07T03:59:29;12.20;100.00
14733;DHT22;7457;50.960;6.830;2023-08-07T04:01:54;12.20;100.00
14733;DHT22;7457;50.960;6.830;2023-08-07T04:04:20;12.20;100.00
14733;DHT22;7457;50.960;6.830;2023-08-07T04:06:46;12.10;100.00
14733;DHT22;7457;50.960;6.830;2023-08-07T04:09:11;12.10;100.00
14733;DHT22;7457;50.960;6.830;2023-08-07T04:11:37;12.10;100.00
14733;DHT22;7457;50.960;6.830;2023-08-07T04:14:03;12.10;100.00
14733;DHT22;7457;50.960;6.830;2023-08-07T04:16:30;12.10;100.00
14733;DHT22;7457;50.960;6.830;2023-08-07T04:18:56;12.00;100.00
14733;DHT22;7457;50.960;6.830;2023-08-07T04:21:22;12.00;100.00
14733;DHT22;7457;50.960;6.830;2023-08-07T04:23:48;12.00;100.00
14733;DHT22;7457;50.960;6.830;2023-08-07T04:26:14;11.90;100.00
14733;DHT22;7457;50.960;6.830;2023-08-07T04:28:40;11.90;100.00
14733;DHT22;7457;50.960;6.830;2023-08-07T04:31:06;11.90;100.00
14733;DHT22;7457;50.960;6.830;2023-08-07T04:33:31;11.90;100.00
14733;DHT22;7457;50.960;6.830;2023-08-07T04:35:57;11.90;100.00
14733;DHT22;7457;50.960;6.830;2023-08-07T04:38:23;11.90;100.00
14733;DHT22;7457;50.960;6.830;2023-08-07T04:40:49;11.90;100.00
14733;DHT22;7457;50.960;6.830;2023-08-07T04:43:16;11.90;100.00
14733;DHT22;7457;50.960;6.830;2023-08-07T04:45:42;11.90;100.00
14733;DHT22;7457;50.960;6.830;2023-08-07T04:48:10;12.00;100.00
14733;DHT22;7457;50.960;6.830;2023-08-07T04:50:37;12.00;100.00
14733;DHT22;7457;50.960;6.830;2023-08-07T04:53:04;12.00;100.00
14733;DHT22;7457;50.960;6.830;2023-08-07T04:55:30;12.10;100.00
14733;DHT22;7457;50.960;6.830;2023-08-07T04:57:56;12.10;100.00
14733;DHT22;7457;50.960;6.830;2023-08-07T05:00:22;12.20;100.00
14733;DHT22;7457;50.960;6.830;2023-08-07T05:02:48;12.20;100.00
14733;DHT22;7457;50.960;6.830;2023-08-07T05:05:14;12.20;100.00
14733;DHT22;7457;50.960;6.830;2023-08-07T05:07:44;12.30;100.00
14733;DHT22;7457;50.960;6.830;2023-08-07T05:10:10;12.30;100.00
14733;DHT22;7457;50.960;6.830;2023-08-07T05:12:36;12.30;100.00
14733;DHT22;7457;50.960;6.830;2023-08-07T05:15:01;12.30;100.00
14733;DHT22;7457;50.960;6.830;2023-08-07T05:17:27;12.40;100.00
14733;DHT22;7457;50.960;6.830;2023-08-07T05:19:53;12.40;100.00
14733;DHT22;7457;50.960;6.830;2023-08-07T05:22:18;12.40;100.00
14733;DHT22;7457;50.960;6.830;2023-08-07T05:24:44;12.50;100.00
14733;DHT22;7457;50.960;6.830;2023-08-07T05:27:11;12.50;100.00
14733;DHT22;7457;50.960;6.830;2023-08-07T05:29:37;12.50;100.00
14733;DHT22;7457;50.960;6.830;2023-08-07T05:32:12;12.50;100.00
14733;DHT22;7457;50.960;6.830;2023-08-07T05:34:38;12.50;100.00
14733;DHT22;7457;50.960;6.830;2023-08-07T05:37:04;12.50;100.00
14733;DHT22;7457;50.960;6.830;2023-08-07T05:39:29;12.60;100.00
14733;DHT22;7457;50.960;6.830;2023-08-07T05:41:56;12.60;100.00
14733;DHT22;7457;50.960;6.830;2023-08-07T05:44:23;12.60;100.00
14733;DHT22;7457;50.960;6.830;2023-08-07T05:46:50;12.60;100.00
14733;DHT22;7457;50.960;6.830;2023-08-07T05:49:16;12.60;100.00
14733;DHT22;7457;50.960;6.830;2023-08-07T05:51:41;12.60;100.00
14733;DHT22;7457;50.960;6.830;2023-08-07T05:54:07;12.60;100.00
14733;DHT22;7457;50.960;6.830;2023-08-07T05:56:33;12.60;100.00
14733;DHT22;7457;50.960;6.830;2023-08-07T05:58:59;12.60;100.00
14733;DHT22;7457;50.960;6.830;2023-08-07T06:01:24;12.70;99.90
14733;DHT22;7457;50.960;6.830;2023-08-07T06:03:57;12.70;99.70
14733;DHT22;7457;50.960;6.830;2023-08-07T06:06:22;12.70;99.30
14733;DHT22;7457;50.960;6.830;2023-08-07T06:08:48;12.70;99.20
14733;DHT22;7457;50.960;6.830;2023-08-07T06:11:14;12.60;99.00
14733;DHT22;7457;50.960;6.830;2023-08-07T06:13:43;12.60;99.00
14733;DHT22;7457;50.960;6.830;2023-08-07T06:16:09;12.60;99.00
14733;DHT22;7457;50.960;6.830;2023-08-07T06:18:34;12.50;99.00
14733;DHT22;7457;50.960;6.830;2023-08-07T06:21:01;12.50;99.00
14733;DHT22;7457;50.960;6.830;2023-08-07T06:23:26;12.40;99.10
14733;DHT22;7457;50.960;6.830;2023-08-07T06:25:52;12.40;99.40
14733;DHT22;7457;50.960;6.830;2023-08-07T06:28:18;12.40;99.70
14733;DHT22;7457;50.960;6.830;2023-08-07T06:30:43;12.30;99.90
14733;DHT22;7457;50.960;6.830;2023-08-07T06:33:09;12.30;99.90
14733;DHT22;7457;50.960;6.830;2023-08-07T06:35:39;12.30;99.90
14733;DHT22;7457;50.960;6.830;2023-08-07T06:38:05;12.20;100.00
14733;DHT22;7457;50.960;6.830;2023-08-07T06:40:31;12.20;100.00
14733;DHT22;7457;50.960;6.830;2023-08-07T06:42:56;12.10;100.00
14733;DHT22;7457;50.960;6.830;2023-08-07T06:45:22;12.10;100.00
14733;DHT22;7457;50.960;6.830;2023-08-07T06:47:48;12.10;100.00
14733;DHT22;7457;50.960;6.830;2023-08-07T06:50:14;12.10;100.00
14733;DHT22;7457;50.960;6.830;2023-08-07T06:52:40;12.10;100.00
14733;DHT22;7457;50.960;6.830;2023-08-07T06:55:06;12.20;100.00
14733;DHT22;7457;50.960;6.830;2023-08-07T06:57:32;12.20;100.00
14733;DHT22;7457;50.960;6.830;2023-08-07T06:59:58;12.20;100.00
14733;DHT22;7457;50.960;6.830;2023-08-07T07:02:23;12.20;100.00
14733;DHT22;7457;50.960;6.830;2023-08-07T07:04:49;12.20;100.00
14733;DHT22;7457;50.960;6.830;2023-08-07T07:07:14;12.20;100.00
14733;DHT22;7457;50.960;6.830;2023-08-07T07:09:40;12.20;100.00
14733;DHT22;7457;50.960;6.830;2023-08-07T07:12:06;12.20;100.00
14733;DHT22;7457;50.960;6.830;2023-08-07T07:14:32;12.30;100.00
14733;DHT22;7457;50.960;6.830;2023-08-07T07:16:59;12.20;100.00
14733;DHT22;7457;50.960;6.830;2023-08-07T07:19:25;12.20;100.00
14733;DHT22;7457;50.960;6.830;2023-08-07T07:21:50;12.20;100.00
14733;DHT22;7457;50.960;6.830;2023-08-07T07:24:17;12.20;100.00
14733;DHT22;7457;50.960;6.830;2023-08-07T07:26:43;12.20;100.00
14733;DHT22;7457;50.960;6.830;2023-08-07T07:29:08;12.20;100.00
14733;DHT22;7457;50.960;6.830;2023-08-07T07:31:34;12.30;100.00
14733;DHT22;7457;50.960;6.830;2023-08-07T07:34:00;12.30;100.00
14733;DHT22;7457;50.960;6.830;2023-08-07T07:36:26;12.40;100.00
14733;DHT22;7457;50.960;6.830;2023-08-07T07:38:51;12.40;100.00
14733;DHT22;7457;50.960;6.830;2023-08-07T07:41:17;12.50;100.00
14733;DHT22;7457;50.960;6.830;2023-08-07T07:43:44;12.50;100.00
14733;DHT22;7457;50.960;6.830;2023-08-07T07:46:10;12.60;100.00
14733;DHT22;7457;50.960;6.830;2023-08-07T07:48:35;12.60;100.00
14733;DHT22;7457;50.960;6.830;2023-08-07T07:51:02;12.70;100.00
14733;DHT22;7457;50.960;6.830;2023-08-07T07:53:28;12.70;100.00
14733;DHT22;7457;50.960;6.830;2023-08-07T07:55:54;12.80;100.00
14733;DHT22;7457;50.960;6.830;2023-08-07T07:58:20;12.80;100.00
14733;DHT22;7457;50.960;6.830;2023-08-07T08:00:46;12.90;100.00
14733;DHT22;7457;50.960;6.830;2023-08-07T08:03:12;13.00;100.00
14733;DHT22;7457;50.960;6.830;2023-08-07T08:05:38;13.10;100.00
14733;DHT22;7457;50.960;6.830;2023-08-07T08:08:06;13.20;100.00
14733;DHT22;7457;50.960;6.830;2023-08-07T08:10:35;13.40;100.00
14733;DHT22;7457;50.960;6.830;2023-08-07T08:13:01;13.40;100.00
14733;DHT22;7457;50.960;6.830;2023-08-07T08:15:29;13.50;100.00
14733;DHT22;7457;50.960;6.830;2023-08-07T08:17:55;13.60;100.00
14733;DHT22;7457;50.960;6.830;2023-08-07T08:20:21;13.70;100.00
14733;DHT22;7457;50.960;6.830;2023-08-07T08:22:47;13.80;100.00
14733;DHT22;7457;50.960;6.830;2023-08-07T08:25:13;13.90;100.00
14733;DHT22;7457;50.960;6.830;2023-08-07T08:27:39;14.00;100.00
14733;DHT22;7457;50.960;6.830;2023-08-07T08:30:05;14.10;100.00
14733;DHT22;7457;50.960;6.830;2023-08-07T08:32:31;14.10;100.00
14733;DHT22;7457;50.960;6.830;2023-08-07T08:34:57;14.10;99.30
14733;DHT22;7457;50.960;6.830;2023-08-07T08:37:22;14.10;99.10
14733;DHT22;7457;50.960;6.830;2023-08-07T08:39:49;14.00;99.20
14733;DHT22;7457;50.960;6.830;2023-08-07T08:42:15;14.00;99.10
14733;DHT22;7457;50.960;6.830;2023-08-07T08:44:56;14.00;99.20
14733;DHT22;7457;50.960;6.830;2023-08-07T08:47:24;14.00;99.20
14733;DHT22;7457;50.960;6.830;2023-08-07T08:50:02;14.00;99.20
14733;DHT22;7457;50.960;6.830;2023-08-07T08:52:31;14.10;99.60
14733;DHT22;7457;50.960;6.830;2023-08-07T08:54:58;14.10;99.50
14733;DHT22;7457;50.960;6.830;2023-08-07T08:57:25;14.30;99.50
14733;DHT22;7457;50.960;6.830;2023-08-07T08:59:52;14.40;99.10
14733;DHT22;7457;50.960;6.830;2023-08-07T09:02:18;14.50;98.90
14733;DHT22;7457;50.960;6.830;2023-08-07T09:04:46;14.80;98.20
14733;DHT22;7457;50.960;6.830;2023-08-07T09:07:14;14.90;98.20
14733;DHT22;7457;50.960;6.830;2023-08-07T09:09:41;15.00;97.50
14733;DHT22;7457;50.960;6.830;2023-08-07T09:12:25;15.20;96.70
14733;DHT22;7457;50.960;6.830;2023-08-07T09:14:58;15.40;95.60
14733;DHT22;7457;50.960;6.830;2023-08-07T09:17:29;15.50;94.60
14733;DHT22;7457;50.960;6.830;2023-08-07T09:19:57;15.60;93.40
14733;DHT22;7457;50.960;6.830;2023-08-07T09:22:23;15.60;93.30
14733;DHT22;7457;50.960;6.830;2023-08-07T09:24:50;15.60;93.70
14733;DHT22;7457;50.960;6.830;2023-08-07T09:27:16;15.60;93.60
14733;DHT22;7457;50.960;6.830;2023-08-07T09:29:43;15.70;92.80
14733;DHT22;7457;50.960;6.830;2023-08-07T09:32:12;15.70;92.60
14733;DHT22;7457;50.960;6.830;2023-08-07T09:34:42;15.80;92.90
14733;DHT22;7457;50.960;6.830;2023-08-07T09:37:10;15.90;93.00
14733;DHT22;7457;50.960;6.830;2023-08-07T09:39:37;16.10;92.40
14733;DHT22;7457;50.960;6.830;2023-08-07T09:42:03;16.30;92.30
14733;DHT22;7457;50.960;6.830;2023-08-07T09:44:38;16.50;91.50
14733;DHT22;7457;50.960;6.830;2023-08-07T09:47:17;16.60;90.50
14733;DHT22;7457;50.960;6.830;2023-08-07T09:49:44;16.60;90.60
14733;DHT22;7457;50.960;6.830;2023-08-07T09:52:12;16.70;90.50
14733;DHT22;7457;50.960;6.830;2023-08-07T09:54:41;16.70;90.00
14733;DHT22;7457;50.960;6.830;2023-08-07T09:57:08;16.70;89.60
14733;DHT22;7457;50.960;6.830;2023-08-07T09:59:34;16.70;88.30
14733;DHT22;7457;50.960;6.830;2023-08-07T10:02:03;16.70;87.70
14733;DHT22;7457;50.960;6.830;2023-08-07T10:04:30;16.70;88.00
14733;DHT22;7457;50.960;6.830;2023-08-07T10:06:57;16.80;87.70
14733;DHT22;7457;50.960;6.830;2023-08-07T10:09:23;16.80;87.10
14733;DHT22;7457;50.960;6.830;2023-08-07T10:11:51;16.90;87.80
14733;DHT22;7457;50.960;6.830;2023-08-07T10:14:18;17.20;87.30
14733;DHT22;7457;50.960;6.830;2023-08-07T10:16:45;17.50;87.40
14733;DHT22;7457;50.960;6.830;2023-08-07T10:19:11;17.80;86.50
14733;DHT22;7457;50.960;6.830;2023-08-07T10:21:40;18.30;87.00
14733;DHT22;7457;50.960;6.830;2023-08-07T10:24:07;19.00;86.40
14733;DHT22;7457;50.960;6.830;2023-08-07T10:26:34;19.40;82.20
14733;DHT22;7457;50.960;6.830;2023-08-07T10:29:02;19.40;79.80
14733;DHT22;7457;50.960;6.830;2023-08-07T10:31:30;19.10;79.60
14733;DHT22;7457;50.960;6.830;2023-08-07T10:33:56;19.10;80.10
14733;DHT22;7457;50.960;6.830;2023-08-07T10:38:49;20.10;77.30
14733;DHT22;7457;50.960;6.830;2023-08-07T10:43:46;21.40;77.20
14733;DHT22;7457;50.960;6.830;2023-08-07T10:46:15;22.10;75.70
14733;DHT22;7457;50.960;6.830;2023-08-07T10:48:45;22.70;73.20
14733;DHT22;7457;50.960;6.830;2023-08-07T10:51:17;23.10;68.30
14733;DHT22;7457;50.960;6.830;2023-08-07T10:53:48;22.80;66.50
14733;DHT22;7457;50.960;6.830;2023-08-07T10:56:18;22.10;64.60
14733;DHT22;7457;50.960;6.830;2023-08-07T11:03:59;20.20;67.00
14733;DHT22;7457;50.960;6.830;2023-08-07T11:06:30;19.90;70.40
14733;DHT22;7457;50.960;6.830;2023-08-07T11:08:59;20.20;68.80
14733;DHT22;7457;50.960;6.830;2023-08-07T11:11:26;20.50;68.90
14733;DHT22;7457;50.960;6.830;2023-08-07T11:13:52;21.10;68.70
14733;DHT22;7457;50.960;6.830;2023-08-07T11:18:48;22.00;64.80
14733;DHT22;7457;50.960;6.830;2023-08-07T11:21:14;21.90;63.80
14733;DHT22;7457;50.960;6.830;2023-08-07T11:23:40;21.80;65.60
14733;DHT22;7457;50.960;6.830;2023-08-07T11:26:08;21.60;64.70
14733;DHT22;7457;50.960;6.830;2023-08-07T11:28:34;21.60;63.00
14733;DHT22;7457;50.960;6.830;2023-08-07T11:31:00;21.70;64.70
14733;DHT22;7457;50.960;6.830;2023-08-07T11:33:27;21.90;64.40
14733;DHT22;7457;50.960;6.830;2023-08-07T11:35:54;22.40;63.70
14733;DHT22;7457;50.960;6.830;2023-08-07T11:41:02;22.70;59.50
14733;DHT22;7457;50.960;6.830;2023-08-07T11:43:33;22.30;58.40
14733;DHT22;7457;50.960;6.830;2023-08-07T11:46:06;22.20;61.70
14733;DHT22;7457;50.960;6.830;2023-08-07T11:48:34;22.40;62.80
14733;DHT22;7457;50.960;6.830;2023-08-07T11:51:01;22.50;58.20
14733;DHT22;7457;50.960;6.830;2023-08-07T11:53:37;21.80;57.40
14733;DHT22;7457;50.960;6.830;2023-08-07T11:56:11;21.60;57.50
14733;DHT22;7457;50.960;6.830;2023-08-07T11:58:50;21.40;60.90
14733;DHT22;7457;50.960;6.830;2023-08-07T12:01:21;21.50;60.50
14733;DHT22;7457;50.960;6.830;2023-08-07T12:03:57;21.80;58.20
14733;DHT22;7457;50.960;6.830;2023-08-07T12:06:36;21.60;58.20
14733;DHT22;7457;50.960;6.830;2023-08-07T12:09:05;21.60;59.60
14733;DHT22;7457;50.960;6.830;2023-08-07T12:11:31;21.80;60.50
14733;DHT22;7457;50.960;6.830;2023-08-07T12:13:59;21.90;56.60
14733;DHT22;7457;50.960;6.830;2023-08-07T12:16:25;21.60;59.00
14733;DHT22;7457;50.960;6.830;2023-08-07T12:18:52;21.20;56.30
14733;DHT22;7457;50.960;6.830;2023-08-07T12:21:20;20.80;59.60
14733;DHT22;7457;50.960;6.830;2023-08-07T12:23:48;20.90;57.70
14733;DHT22;7457;50.960;6.830;2023-08-07T12:26:14;20.90;58.70
14733;DHT22;7457;50.960;6.830;2023-08-07T12:28:40;20.80;57.50
14733;DHT22;7457;50.960;6.830;2023-08-07T12:31:06;20.50;59.00
14733;DHT22;7457;50.960;6.830;2023-08-07T12:33:32;20.30;58.50
14733;DHT22;7457;50.960;6.830;2023-08-07T12:35:58;20.10;60.70
14733;DHT22;7457;50.960;6.830;2023-08-07T12:38:24;20.20;61.30
14733;DHT22;7457;50.960;6.830;2023-08-07T12:40:50;20.10;59.30
14733;DHT22;7457;50.960;6.830;2023-08-07T12:43:16;20.10;59.50
14733;DHT22;7457;50.960;6.830;2023-08-07T12:45:42;20.00;61.50
14733;DHT22;7457;50.960;6.830;2023-08-07T12:48:07;20.10;60.00
14733;DHT22;7457;50.960;6.830;2023-08-07T12:50:34;20.10;60.50
14733;DHT22;7457;50.960;6.830;2023-08-07T12:52:59;20.10;62.20
14733;DHT22;7457;50.960;6.830;2023-08-07T12:55:26;20.30;61.70
14733;DHT22;7457;50.960;6.830;2023-08-07T12:57:53;20.40;59.80
14733;DHT22;7457;50.960;6.830;2023-08-07T13:00:19;20.50;61.20
14733;DHT22;7457;50.960;6.830;2023-08-07T13:02:47;20.60;59.60
14733;DHT22;7457;50.960;6.830;2023-08-07T13:05:13;20.60;58.90
14733;DHT22;7457;50.960;6.830;2023-08-07T13:07:40;20.50;58.50
14733;DHT22;7457;50.960;6.830;2023-08-07T13:10:07;20.40;61.00
14733;DHT22;7457;50.960;6.830;2023-08-07T13:12:35;20.20;58.80
14733;DHT22;7457;50.960;6.830;2023-08-07T13:15:02;20.10;59.50
14733;DHT22;7457;50.960;6.830;2023-08-07T13:17:28;20.20;60.00
14733;DHT22;7457;50.960;6.830;2023-08-07T13:19:54;20.10;58.60
14733;DHT22;7457;50.960;6.830;2023-08-07T13:22:20;19.90;60.20
14733;DHT22;7457;50.960;6.830;2023-08-07T13:24:45;19.80;59.00
14733;DHT22;7457;50.960;6.830;2023-08-07T13:27:11;19.80;60.30
14733;DHT22;7457;50.960;6.830;2023-08-07T13:29:36;19.70;62.10
14733;DHT22;7457;50.960;6.830;2023-08-07T13:32:03;19.60;60.90
14733;DHT22;7457;50.960;6.830;2023-08-07T13:34:37;19.50;60.50
14733;DHT22;7457;50.960;6.830;2023-08-07T13:37:06;19.40;61.10
14733;DHT22;7457;50.960;6.830;2023-08-07T13:39:33;19.30;61.30
14733;DHT22;7457;50.960;6.830;2023-08-07T13:41:58;19.20;61.90
14733;DHT22;7457;50.960;6.830;2023-08-07T13:44:25;19.10;64.00
14733;DHT22;7457;50.960;6.830;2023-08-07T13:46:51;19.20;62.70
14733;DHT22;7457;50.960;6.830;2023-08-07T13:49:17;19.20;62.70
14733;DHT22;7457;50.960;6.830;2023-08-07T13:51:43;19.20;62.90
14733;DHT22;7457;50.960;6.830;2023-08-07T13:54:08;19.30;63.80
14733;DHT22;7457;50.960;6.830;2023-08-07T13:56:34;19.40;63.90
14733;DHT22;7457;50.960;6.830;2023-08-07T13:59:00;19.60;64.40
14733;DHT22;7457;50.960;6.830;2023-08-07T14:01:26;19.90;65.30
14733;DHT22;7457;50.960;6.830;2023-08-07T14:03:53;20.10;65.30
14733;DHT22;7457;50.960;6.830;2023-08-07T14:06:19;20.30;65.10
14733;DHT22;7457;50.960;6.830;2023-08-07T14:08:45;20.40;63.60
14733;DHT22;7457;50.960;6.830;2023-08-07T14:11:11;20.30;61.50
14733;DHT22;7457;50.960;6.830;2023-08-07T14:13:40;20.20;61.70
14733;DHT22;7457;50.960;6.830;2023-08-07T14:16:05;20.00;62.10
14733;DHT22;7457;50.960;6.830;2023-08-07T14:18:31;19.80;62.70
14733;DHT22;7457;50.960;6.830;2023-08-07T14:20:57;19.60;63.40
14733;DHT22;7457;50.960;6.830;2023-08-07T14:23:22;19.50;63.40
14733;DHT22;7457;50.960;6.830;2023-08-07T14:25:48;19.40;63.80
14733;DHT22;7457;50.960;6.830;2023-08-07T14:28:16;19.10;65.30
14733;DHT22;7457;50.960;6.830;2023-08-07T14:30:42;18.70;67.20
14733;DHT22;7457;50.960;6.830;2023-08-07T14:33:08;18.40;69.30
14733;DHT22;7457;50.960;6.830;2023-08-07T14:35:33;18.40;70.90
14733;DHT22;7457;50.960;6.830;2023-08-07T14:37:59;18.40;71.70
14733;DHT22;7457;50.960;6.830;2023-08-07T14:40:25;18.60;71.50
14733;DHT22;7457;50.960;6.830;2023-08-07T14:42:51;18.70;71.40
14733;DHT22;7457;50.960;6.830;2023-08-07T14:45:17;18.80;71.10
14733;DHT22;7457;50.960;6.830;2023-08-07T14:47:43;18.90;69.70
14733;DHT22;7457;50.960;6.830;2023-08-07T14:50:09;18.80;69.00
14733;DHT22;7457;50.960;6.830;2023-08-07T14:52:36;18.70;69.10
14733;DHT22;7457;50.960;6.830;2023-08-07T14:55:01;18.80;70.80
14733;DHT22;7457;50.960;6.830;2023-08-07T14:57:27;19.00;70.60
14733;DHT22;7457;50.960;6.830;2023-08-07T14:59:53;19.20;70.40
14733;DHT22;7457;50.960;6.830;2023-08-07T15:02:19;19.50;70.00
14733;DHT22;7457;50.960;6.830;2023-08-07T15:04:44;19.70;69.70
14733;DHT22;7457;50.960;6.830;2023-08-07T15:07:10;19.80;69.30
14733;DHT22;7457;50.960;6.830;2023-08-07T15:09:38;19.90;68.70
14733;DHT22;7457;50.960;6.830;2023-08-07T15:12:04;20.10;67.30
14733;DHT22;7457;50.960;6.830;2023-08-07T15:14:32;20.10;66.80
14733;DHT22;7457;50.960;6.830;2023-08-07T15:16:58;20.20;66.50
14733;DHT22;7457;50.960;6.830;2023-08-07T15:19:23;20.10;65.80
14733;DHT22;7457;50.960;6.830;2023-08-07T15:21:52;20.00;66.00
14733;DHT22;7457;50.960;6.830;2023-08-07T15:24:17;19.80;66.40
14733;DHT22;7457;50.960;6.830;2023-08-07T15:26:43;19.70;67.50
14733;DHT22;7457;50.960;6.830;2023-08-07T15:29:09;19.80;66.80
14733;DHT22;7457;50.960;6.830;2023-08-07T15:31:34;19.80;66.70
14733;DHT22;7457;50.960;6.830;2023-08-07T15:34:00;19.80;66.40
14733;DHT22;7457;50.960;6.830;2023-08-07T15:36:26;19.80;65.80
14733;DHT22;7457;50.960;6.830;2023-08-07T15:38:51;19.80;65.90
14733;DHT22;7457;50.960;6.830;2023-08-07T15:41:17;19.70;65.30
14733;DHT22;7457;50.960;6.830;2023-08-07T15:43:43;19.60;65.40
14733;DHT22;7457;50.960;6.830;2023-08-07T15:46:09;19.40;65.80
14733;DHT22;7457;50.960;6.830;2023-08-07T15:48:35;19.40;66.30
14733;DHT22;7457;50.960;6.830;2023-08-07T15:51:01;19.30;66.60
14733;DHT22;7457;50.960;6.830;2023-08-07T15:53:27;19.30;66.40
14733;DHT22;7457;50.960;6.830;2023-08-07T15:55:53;19.30;66.50
14733;DHT22;7457;50.960;6.830;2023-08-07T15:58:19;19.20;66.30
14733;DHT22;7457;50.960;6.830;2023-08-07T16:00:47;19.20;66.30
14733;DHT22;7457;50.960;6.830;2023-08-07T16:03:13;19.10;66.10
14733;DHT22;7457;50.960;6.830;2023-08-07T16:05:38;19.00;65.80
14733;DHT22;7457;50.960;6.830;2023-08-07T16:08:05;19.00;66.20
14733;DHT22;7457;50.960;6.830;2023-08-07T16:10:33;19.00;67.30